Fort Myers, FL (33905)

11:37 AM EDT on October 31, 2014 (GMT -0400)
Fleamasters Fleamarket | Change Station
CLOSE
Current Station
Personal Weather Station
Location: Fort Myers, FL
Elevation: 23 ft
Nearby Weather Stations

Elev 23 ft 26.64 °N, 81.83 °W | Updated 1 minute ago

Mostly Cloudy
Mostly Cloudy
78.2 °F
Feels Like 80 °F
N
6.0
Wind Variable Wind from NNW
Gusts 11.0 mph

Today
High -- | Low -- °F
--% Chance of Precip.
Yesterday
High -- | Low -- °F
Precip. -- in
7:36 AM 6:45 PM
First Quarter, 56% visible
Pressure 29.89 in
Visibility 10.0 miles
Clouds Few 3100 ft
Scattered Clouds 4200 ft
Mostly Cloudy 5000 ft
Heat Index 80 °F
Dew Point 68 °F
Humidity 72%
Rainfall 0.00 in
Snow Depth Not available.
UV 5.0 out of 12
Pollen 4.90 out of 12
Air Quality Not available.
Flu Activity Not available.
METAR KFMY 311453Z 35005KT 10SM FEW031 SCT042 BKN050 25/19 A2988 RMK AO2 SLP120 T02500194 50010

More Conditions Fewer Conditions

Pressure 29.89 in
Visibility 10.0 miles
Clouds Few 3100 ft
Scattered Clouds 4200 ft
Mostly Cloudy 5000 ft
Heat Index 80 °F
Dew Point 68 °F
Humidity 72%
Rainfall 0.00 in
Snow Depth Not available.
UV 5.0 out of 12
Pollen 4.90 out of 12
Air Quality Not available.
Flu Activity Not available.
METAR KFMY 311453Z 35005KT 10SM FEW031 SCT042 BKN050 25/19 A2988 RMK AO2 SLP120 T02500194 50010

More Conditions Fewer Conditions

10-Day Weather Forecast

Almanac

Astronomy

Oct. 31, 2014 Rise Set
Actual Time
Civil Twilight
Nautical Twilight
Astronomical Twilight
Moon
Length of Visible Light
Length of Day
Tomorrow will be .
, % of the Moon is Illuminated

Today's Extremes

State Highs State Lows

Community

WunderPhotos

Upload Photos

1,766,640 photos uploaded!

WunderBlogs® & News

Nearby

Air Quality

  Air Quality AQ Index Pollutant
Not available.

Snow Depth

Station Depth Elevation

Earthquake Activity

City Distance Mag. Time & Date
Minimum magnitude displayed is 2.5.

Coastal Water Temperatures

Place Temperature

Nearby Weather Stations